Preston, OK

5:47 PM CDT on March 26, 2017 (GMT -0500)
Okmulgee - Walker | | Change Station
Active Advisory: Tornado Watch Active Notice: Public Information Statement

Elev 669 ft 35.63 °N, 95.99 °W | Updated 3 seconds ago

Mostly Cloudy
Mostly Cloudy
74.1 °F
Feels Like 77 °F
N
5.8
Wind Variable Wind from ESE

Today
High -- | Low -- °F
--% Chance of Precip.
Yesterday
High -- | Low -- °F
Precip. -- in
Pressure 29.75 in
Visibility 10.0 miles
Clouds Scattered Clouds 7500 ft
Mostly Cloudy 11000 ft
Heat Index 77 °F
Dew Point 53 °F
Humidity 48%
Rainfall 0.00 in
Snow Depth Not available.
7:18 AM 7:40 PM
Waning Crescent, 2% visible
METAR KOKM 262235Z AUTO 15013G19KT 10SM SCT075 BKN110 22/10 A2975 RMK AO2 LTG DSNT W T02230104
Pressure 29.75 in
Visibility 10.0 miles
Clouds Scattered Clouds 7500 ft
Mostly Cloudy 11000 ft
Heat Index 77 °F
Dew Point 53 °F
Humidity 48%
Rainfall 0.00 in
Snow Depth Not available.
7:18 AM 7:40 PM
Waning Crescent, 2% visible
METAR KOKM 262235Z AUTO 15013G19KT 10SM SCT075 BKN110 22/10 A2975 RMK AO2 LTG DSNT W T02230104

Get Your Daily Forecast Email!

Thanks for signing up!

Be on the lookout for a verification email in your inbox.

You'll start receiving severe weather alerts in your inbox..

×

10-Day Weather Forecast

Almanac

Astronomy

Mar. 26, 2017 Rise Set
Actual Time
Civil Twilight
Nautical Twilight
Astronomical Twilight
Moon
Length of Visible Light
Length of Day
Tomorrow will be .
, % of the Moon is Illuminated

Today's Extremes

State Highs State Lows

Community

WunderPhotos

Upload Photos

1,962,540 photos uploaded!

WunderBlog® & News

Nearby

Air Quality

  Air Quality AQ Index Pollutant
Not available.

Snow Depth

Station Depth Elevation

Earthquake Activity

City Distance Mag. Time & Date
Minimum magnitude displayed is 2.5.

Earthquake Activity

City Distance Mag. Time & Date
Minimum magnitude displayed is 2.5.

Coastal Water Temperatures

Place Temperature

Stations

Nearby Weather Stations

Station Location Temp. Windchill Dew Point Humidity Wind Precip. Elev Updated Type
                   

Watches & Warnings

Tornado Watch
Issued: 5:43 PM CDT Mar. 26, 2017 – National Weather Service

Tornado Watch 86 remains in effect until 1100 PM CDT for the
following locations


OK
. Oklahoma counties included are

Alfalfa Atoka Blaine
Bryan Canadian Carter
Choctaw Cleveland Coal
Creek Garfield Garvin
Grady Grant Harper
Hughes Jefferson Johnston
Kay Kingfisher Lincoln
Logan Love McClain
McIntosh major Marshall
Murray Noble Okfuskee
Oklahoma Okmulgee Pawnee
Payne Pittsburg Pontotoc
Pottawatomie Pushmataha Seminole
Stephens Woods Woodward